Terminal Aerodrome Forecast
Issued by NWS

Home | Current Version | Previous Version | Text Only | Print | Product List | Glossary On
Versions: 1 2 3 4 5 6 7 8 9 10 11 12 13 14 15 16 17 18 19 20 21 22 23
486
FTUS44 KLZK 301120
TAFHOT
TAF
KHOT 301120Z 3012/3112 00000KT P6SM VCFG FEW005 SCT250
     FM301300 VRB05KT P6SM VCTS SCT050CB BKN080
      TEMPO 3015/3019 5SM -TSRA BR BKN025CB
     FM302200 10006KT P6SM VCTS SCT040CB SCT250=

USA.gov is the U.S. government's official web portal to all federal, state and local government web resources and services.